Time;durP1;ratioP1;P1;durP2;ratioP2;P2;SDS_P1;SDS_P2;PMS_P1;PMS_P2;Temp;Humidity;BMP_temperature;BMP_pressure;BME280_temperature;BME280_humidity;BME280_pressure;Samples;Min_cycle;Max_cycle;Signal;HPM_P1;HPM_P2
2021/07/25 00:01:33;;;;;;;764.23;714.13;;;16.60;99.90;;;;;;5033040;28;20452;-92
2021/07/25 00:03:59;;;;;;;761.63;713.80;;;16.60;99.90;;;;;;5032988;28;20794;-92
2021/07/25 00:06:26;;;;;;;751.37;703.80;;;16.70;99.90;;;;;;5033154;28;20491;-91
2021/07/25 00:08:53;;;;;;;762.03;714.37;;;16.60;99.90;;;;;;5033139;28;20484;-94
2021/07/25 00:11:24;;;;;;;762.63;714.60;;;16.50;99.90;;;;;;5032885;28;20491;-89
2021/07/25 00:13:54;;;;;;;755.50;708.23;;;16.50;99.90;;;;;;5032286;28;20571;-92
2021/07/25 00:16:27;;;;;;;749.40;701.33;;;16.50;99.90;;;;;;5032969;28;21039;-93
2021/07/25 00:18:55;;;;;;;728.93;683.17;;;16.50;99.90;;;;;;5033151;28;20464;-93
2021/07/25 00:21:24;;;;;;;715.93;671.03;;;16.50;99.90;;;;;;5033640;28;20460;-91
2021/07/25 00:23:52;;;;;;;708.80;664.43;;;16.60;99.90;;;;;;5033306;28;20994;-87
2021/07/25 00:26:33;;;;;;;719.03;673.00;;;16.70;99.90;;;;;;5032935;28;20535;-91
2021/07/25 00:29:11;;;;;;;721.70;677.00;;;16.60;99.90;;;;;;5032096;28;20452;-92
2021/07/25 00:31:38;;;;;;;713.17;666.37;;;16.60;99.90;;;;;;5033104;28;20816;-88
2021/07/25 00:34:07;;;;;;;715.90;670.20;;;16.50;99.90;;;;;;5033192;28;20464;-95
2021/07/25 00:36:34;;;;;;;727.87;680.87;;;16.50;99.90;;;;;;5032772;28;20526;-92
2021/07/25 00:39:02;;;;;;;715.00;671.13;;;16.40;99.90;;;;;;5034533;28;20815;-91
2021/07/25 00:41:29;;;;;;;725.90;681.27;;;16.30;99.90;;;;;;5038693;28;20831;-91
2021/07/25 00:43:56;;;;;;;721.67;677.27;;;16.30;99.90;;;;;;5052338;28;20526;-94
2021/07/25 00:46:23;;;;;;;716.10;671.27;;;16.30;99.90;;;;;;5052597;28;20455;-94
2021/07/25 00:48:51;;;;;;;701.40;657.23;;;16.30;99.90;;;;;;5052887;28;20463;-92
2021/07/25 00:51:27;;;;;;;706.53;662.00;;;16.40;99.90;;;;;;5052462;28;20973;-90
2021/07/25 00:54:08;;;;;;;710.67;667.30;;;16.20;99.90;;;;;;5052561;28;20447;-91
2021/07/25 00:56:36;;;;;;;714.63;670.87;;;16.20;99.90;;;;;;5052501;28;20485;-92
2021/07/25 00:59:12;;;;;;;725.87;679.70;;;16.10;99.90;;;;;;5051990;28;20462;-90
2021/07/25 01:01:46;;;;;;;720.20;675.23;;;16.00;99.90;;;;;;5055259;28;20459;-93
2021/07/25 01:04:30;;;;;;;709.27;665.03;;;16.10;99.90;;;;;;5057283;28;20452;-94
2021/07/25 01:07:09;;;;;;;711.90;667.07;;;16.10;99.90;;;;;;5057140;28;20465;-94
2021/07/25 01:09:54;;;;;;;705.30;660.40;;;16.20;99.90;;;;;;5056584;28;20478;-94
2021/07/25 01:12:29;;;;;;;707.00;662.07;;;16.40;99.90;;;;;;5057863;28;20451;-95
2021/07/25 01:15:00;;;;;;;704.53;661.03;;;16.40;99.90;;;;;;5055316;28;20470;-93
2021/07/25 01:17:34;;;;;;;699.47;654.30;;;16.40;99.90;;;;;;5056242;28;20451;-92
2021/07/25 01:20:04;;;;;;;696.73;652.47;;;16.50;99.90;;;;;;5056749;28;20451;-93
2021/07/25 01:22:39;;;;;;;712.57;668.57;;;16.50;99.90;;;;;;5058868;28;20955;-95
2021/07/25 01:25:12;;;;;;;726.43;680.53;;;16.60;99.90;;;;;;5058951;28;20447;-94
2021/07/25 01:27:46;;;;;;;714.10;669.07;;;16.60;99.90;;;;;;5057427;28;20455;-96
2021/07/25 01:30:16;;;;;;;717.33;673.23;;;16.60;99.90;;;;;;5055658;28;20514;-91
2021/07/25 01:32:53;;;;;;;735.47;689.03;;;16.50;99.90;;;;;;5057700;28;20444;-92
2021/07/25 01:35:24;;;;;;;728.97;683.60;;;16.60;99.90;;;;;;5056675;28;20455;-92
2021/07/25 01:37:53;;;;;;;719.43;673.97;;;16.60;99.90;;;;;;5056519;28;21019;-90
2021/07/25 01:40:24;;;;;;;725.50;679.40;;;16.50;99.90;;;;;;5061001;28;20484;-93
2021/07/25 01:42:52;;;;;;;742.30;695.47;;;16.60;99.90;;;;;;5046399;28;20950;-94
2021/07/25 01:45:24;;;;;;;739.43;692.23;;;16.60;99.90;;;;;;5037977;28;20514;-91
2021/07/25 01:47:51;;;;;;;753.93;706.03;;;16.60;99.90;;;;;;5040068;28;20452;-90
2021/07/25 01:50:21;;;;;;;742.17;694.50;;;16.60;99.90;;;;;;5038997;28;20479;-92
2021/07/25 01:52:48;;;;;;;742.30;695.23;;;16.60;99.90;;;;;;5040600;28;20822;-93
2021/07/25 01:55:15;;;;;;;748.33;701.03;;;16.60;99.90;;;;;;5036967;28;20855;-95
2021/07/25 01:57:42;;;;;;;742.23;695.23;;;16.60;99.90;;;;;;5040478;28;20494;-91
2021/07/25 02:00:10;;;;;;;750.20;702.60;;;16.50;99.90;;;;;;5040796;28;20444;-93
2021/07/25 02:02:37;;;;;;;752.80;704.70;;;16.50;99.90;;;;;;5041174;28;20495;-92
2021/07/25 02:05:05;;;;;;;773.43;725.53;;;16.40;99.90;;;;;;5042112;28;20887;-88
2021/07/25 02:07:34;;;;;;;767.40;719.10;;;16.30;99.90;;;;;;5040090;28;20523;-91
2021/07/25 02:10:03;;;;;;;762.33;715.90;;;16.10;99.90;;;;;;5062421;28;20440;-90
2021/07/25 02:12:31;;;;;;;760.33;713.33;;;16.00;99.90;;;;;;5060575;28;20451;-88
2021/07/25 02:14:58;;;;;;;757.67;708.57;;;15.90;99.90;;;;;;5056626;28;20484;-92
2021/07/25 02:17:25;;;;;;;730.97;686.13;;;16.00;99.90;;;;;;5056755;28;20478;-94
2021/07/25 02:19:52;;;;;;;734.63;688.03;;;15.90;99.90;;;;;;5056098;28;20439;-93
2021/07/25 02:22:19;;;;;;;743.37;696.93;;;15.80;99.90;;;;;;5055707;28;20525;-91
2021/07/25 02:24:47;;;;;;;738.73;684.33;;;15.70;99.90;;;;;;5055728;28;20692;-92
2021/07/25 02:27:14;;;;;;;738.40;684.83;;;15.60;99.90;;;;;;5055472;28;20501;-92
2021/07/25 02:29:41;;;;;;;716.70;672.40;;;15.60;99.90;;;;;;5055635;28;20570;-79
2021/07/25 02:32:08;;;;;;;708.57;664.77;;;15.40;99.90;;;;;;5052942;28;20811;-81
2021/07/25 02:34:36;;;;;;;690.67;648.50;;;15.30;99.90;;;;;;5054291;28;20451;-81
2021/07/25 02:37:04;;;;;;;692.90;650.87;;;15.30;99.90;;;;;;5054249;28;20519;-81
2021/07/25 02:39:31;;;;;;;677.10;636.07;;;15.30;99.90;;;;;;5054059;28;20542;-84
2021/07/25 02:41:59;;;;;;;674.73;633.43;;;15.30;99.90;;;;;;5045855;28;20449;-77
2021/07/25 02:44:25;;;;;;;669.43;629.20;;;15.30;99.90;;;;;;5032931;28;20487;-76
2021/07/25 02:46:52;;;;;;;655.97;612.10;;;15.30;99.90;;;;;;5034167;28;20460;-76
2021/07/25 02:49:19;;;;;;;643.27;601.23;;;15.20;99.90;;;;;;5034118;28;20467;-77
2021/07/25 02:51:46;;;;;;;633.90;596.87;;;15.10;99.90;;;;;;5034103;28;20463;-77
2021/07/25 02:54:12;;;;;;;642.10;603.30;;;15.10;99.90;;;;;;5033837;28;20463;-77
2021/07/25 02:56:39;;;;;;;632.47;592.83;;;15.10;99.90;;;;;;5033862;28;20492;-76
2021/07/25 02:59:14;;;;;;;623.63;586.03;;;15.10;99.90;;;;;;5032731;28;20947;-84
2021/07/25 03:01:41;;;;;;;614.43;574.83;;;15.00;99.90;;;;;;5033762;28;21081;-81
2021/07/25 03:04:08;;;;;;;593.20;552.73;;;15.00;99.90;;;;;;5034402;28;20522;-81
2021/07/25 03:06:35;;;;;;;592.33;544.73;;;15.10;99.90;;;;;;5033548;28;20463;-81
2021/07/25 03:09:03;;;;;;;591.10;550.10;;;15.10;99.90;;;;;;5033794;28;20460;-81
2021/07/25 03:11:31;;;;;;;588.20;550.93;;;15.10;99.90;;;;;;5033652;28;20456;-82
2021/07/25 03:13:58;;;;;;;594.97;558.37;;;15.10;99.90;;;;;;5032222;28;21061;-81
2021/07/25 03:16:27;;;;;;;602.27;564.83;;;15.20;99.90;;;;;;5033499;28;20558;-82
2021/07/25 03:18:53;;;;;;;596.00;557.90;;;15.20;99.90;;;;;;5033703;28;20456;-82
2021/07/25 03:21:20;;;;;;;590.07;550.23;;;15.10;99.90;;;;;;5033344;28;20492;-82
2021/07/25 03:23:47;;;;;;;591.57;553.27;;;15.10;99.90;;;;;;5033007;28;20456;-82
2021/07/25 03:26:14;;;;;;;592.27;553.13;;;15.10;99.90;;;;;;5033365;28;20985;-82
2021/07/25 03:28:46;;;;;;;586.30;550.33;;;14.90;99.90;;;;;;5033177;28;20480;-82
2021/07/25 03:31:13;;;;;;;575.67;535.13;;;14.80;99.90;;;;;;5032248;28;20456;-84
2021/07/25 03:33:44;;;;;;;579.03;544.03;;;14.70;99.90;;;;;;5033352;28;20867;-83
2021/07/25 03:36:11;;;;;;;571.00;536.53;;;14.60;99.90;;;;;;5033202;28;21005;-81
2021/07/25 03:45:17;;;;;;;567.47;533.37;;;14.50;99.90;;;;;;5009571;28;20456;-83
2021/07/25 03:47:57;;;;;;;562.37;528.87;;;14.60;99.90;;;;;;5052964;28;20455;-82
2021/07/25 03:50:33;;;;;;;574.93;537.30;;;14.50;99.90;;;;;;5052706;28;20454;-82
2021/07/25 03:53:07;;;;;;;561.50;528.27;;;14.50;99.90;;;;;;5052842;28;20461;-82
2021/07/25 03:56:05;;;;;;;557.30;522.60;;;14.50;99.90;;;;;;5052720;28;20486;-82
2021/07/25 03:58:35;;;;;;;571.97;536.63;;;14.40;99.90;;;;;;5052913;28;20468;-84
2021/07/25 04:01:05;;;;;;;559.37;525.67;;;14.20;99.90;;;;;;5051757;28;20549;-83
2021/07/25 04:03:37;;;;;;;545.63;510.73;;;14.30;99.90;;;;;;5052954;28;20851;-83
2021/07/25 04:06:05;;;;;;;536.40;506.10;;;14.50;99.90;;;;;;5050162;28;20502;-83
2021/07/25 04:08:53;;;;;;;529.27;498.97;;;14.50;99.90;;;;;;5032855;28;20615;-82
2021/07/25 04:12:06;;;;;;;;;;;;;;;;;;;;;
2021/07/25 04:14:33;;;;;;;534.63;505.90;;;14.70;99.90;;;;;;4953325;28;21732;-82
2021/07/25 04:17:02;;;;;;;546.60;515.73;;;14.80;99.90;;;;;;5030714;28;20483;-84
2021/07/25 04:19:31;;;;;;;538.90;508.47;;;14.80;99.90;;;;;;5052595;28;20520;-81
2021/07/25 04:22:06;;;;;;;549.40;518.70;;;14.70;99.90;;;;;;5050778;28;20543;-82
2021/07/25 04:24:49;;;;;;;550.07;519.77;;;14.60;99.90;;;;;;5052570;28;20454;-82
2021/07/25 04:27:40;;;;;;;559.60;528.70;;;14.60;99.90;;;;;;5052621;28;20462;-83
2021/07/25 04:30:43;;;;;;;;;;;;;;;;;;;;;
2021/07/25 04:33:20;;;;;;;550.47;519.37;;;14.60;99.90;;;;;;5052582;28;20815;-82
2021/07/25 04:36:11;;;;;;;549.90;518.40;;;14.50;99.90;;;;;;5053237;28;20519;-82
2021/07/25 04:42:00;;;;;;;;;;;;;;;;;;;;;
2021/07/25 04:53:37;;;;;;;544.60;514.60;;;14.80;99.90;;;;;;5056224;28;20455;-83
2021/07/25 05:26:27;;;;;;;572.17;536.87;;;16.20;99.90;;;;;;4802978;29;20927;-82
2021/07/25 05:28:57;;;;;;;578.53;543.53;;;16.40;99.90;;;;;;4895591;28;20557;-82
2021/07/25 05:31:31;;;;;;;597.80;560.57;;;16.50;99.90;;;;;;5027365;28;20532;-82
2021/07/25 05:33:59;;;;;;;603.47;567.60;;;16.60;99.90;;;;;;5035691;28;20459;-82
2021/07/25 05:36:26;;;;;;;618.33;583.30;;;16.90;99.90;;;;;;5035444;28;20460;-83
2021/07/25 05:38:53;;;;;;;581.93;549.43;;;17.40;99.90;;;;;;5035460;28;20518;-82
2021/07/25 05:41:22;;;;;;;631.13;594.37;;;17.70;99.90;;;;;;5038357;28;20478;-82
2021/07/25 05:43:49;;;;;;;540.23;511.60;;;18.10;99.90;;;;;;5055441;28;20455;-83
2021/07/25 05:46:16;;;;;;;470.40;447.23;;;18.50;99.90;;;;;;5053749;28;20954;-81
2021/07/25 05:48:43;;;;;;;376.67;358.57;;;18.80;99.90;;;;;;5055383;28;20463;-82
2021/07/25 05:51:10;;;;;;;197.33;186.20;;;19.20;99.90;;;;;;5055123;28;20451;-79
2021/07/25 05:53:37;;;;;;;59.53;40.77;;;19.40;99.90;;;;;;5054895;28;20452;-78
2021/07/25 05:56:04;;;;;;;54.43;21.33;;;19.60;99.90;;;;;;5055119;28;20451;-78
2021/07/25 05:58:32;;;;;;;49.40;12.23;;;19.90;99.90;;;;;;5050299;28;20486;-77
2021/07/25 06:00:59;;;;;;;56.57;14.03;;;20.10;97.60;;;;;;5054032;28;20459;-77
2021/07/25 06:03:25;;;;;;;52.50;20.17;;;20.10;92.40;;;;;;5055223;28;20482;-77
2021/07/25 06:05:52;;;;;;;49.67;16.43;;;20.30;91.60;;;;;;5054767;28;20457;-78
2021/07/25 06:08:19;;;;;;;47.07;11.53;;;20.50;91.90;;;;;;5054819;28;20455;-79
2021/07/25 06:10:46;;;;;;;48.07;10.30;;;20.60;90.00;;;;;;5054003;28;20459;-78
2021/07/25 06:13:13;;;;;;;49.80;9.70;;;20.90;85.70;;;;;;5054527;28;20459;-78
2021/07/25 06:15:41;;;;;;;52.73;11.03;;;20.90;82.00;;;;;;5053105;28;20483;-79
2021/07/25 06:18:08;;;;;;;51.83;14.80;;;21.10;78.10;;;;;;5054527;28;20497;-79
2021/07/25 06:20:36;;;;;;;49.67;12.63;;;21.40;79.40;;;;;;5054439;28;20455;-79
2021/07/25 06:23:04;;;;;;;51.70;12.00;;;21.50;76.40;;;;;;5054781;28;20455;-78
2021/07/25 06:25:34;;;;;;;53.93;11.57;;;21.90;74.40;;;;;;5054483;28;20462;-79
2021/07/25 06:28:03;;;;;;;52.47;15.60;;;22.10;72.10;;;;;;5054170;28;20994;-78
2021/07/25 06:30:30;;;;;;;53.80;17.33;;;22.30;67.90;;;;;;5053126;28;20459;-78
2021/07/25 06:33:00;;;;;;;54.80;18.60;;;22.20;69.40;;;;;;5054601;28;20467;-79
2021/07/25 06:35:29;;;;;;;49.90;11.77;;;22.30;62.70;;;;;;5054254;28;20447;-79
2021/07/25 06:37:57;;;;;;;50.03;7.20;;;22.40;63.50;;;;;;5054247;28;20490;-78
2021/07/25 06:40:25;;;;;;;49.77;7.87;;;22.50;58.30;;;;;;5054353;28;20451;-78
2021/07/25 06:42:54;;;;;;;47.47;6.67;;;22.90;59.90;;;;;;5054210;28;20454;-79
2021/07/25 06:45:21;;;;;;;47.57;7.10;;;23.00;56.00;;;;;;5052837;28;20451;-79
2021/07/25 06:47:49;;;;;;;48.17;7.53;;;23.00;51.90;;;;;;5053896;28;20455;-78
2021/07/25 06:50:21;;;;;;;50.67;7.13;;;23.20;53.40;;;;;;5054083;28;20447;-79
2021/07/25 06:52:49;;;;;;;49.97;7.57;;;23.40;47.50;;;;;;5054094;28;20462;-79
2021/07/25 06:55:16;;;;;;;49.80;6.30;;;23.60;47.80;;;;;;5053882;28;20496;-83
2021/07/25 06:57:43;;;;;;;49.17;6.70;;;23.30;46.00;;;;;;5047453;28;20493;-81
2021/07/25 07:45:49;;;;;;;53.13;6.97;;;25.20;27.10;;;;;;4780254;29;20609;-81
2021/07/25 07:54:45;;;;;;;49.83;8.07;;;25.10;24.80;;;;;;4863260;29;20479;-82
2021/07/25 08:01:16;;;;;;;;;;;;;;;;;;;;;
2021/07/25 08:04:22;;;;;;;;;;;;;;;;;;;;;
2021/07/25 08:11:03;;;;;;;45.73;8.37;;;24.40;27.60;;;;;;4952399;28;20472;-85
2021/07/25 08:30:49;;;;;;;47.60;9.47;;;24.90;22.60;;;;;;4831333;28;20506;-81
2021/07/25 08:40:59;;;;;;;52.10;8.37;;;26.00;21.30;;;;;;4880844;28;20514;-81
2021/07/25 08:43:41;;;;;;;50.60;9.53;;;26.10;20.00;;;;;;4944594;28;20458;-81
2021/07/25 08:49:17;;;;;;;49.50;11.53;;;26.60;17.60;;;;;;5052143;28;20509;-82
2021/07/25 08:52:08;;;;;;;49.60;7.00;;;26.50;17.30;;;;;;5052348;28;20894;-85
2021/07/25 09:08:10;;;;;;;50.73;6.17;;;26.50;16.60;;;;;;4944285;28;20986;-82
2021/07/25 09:14:21;;;;;;;;;;;;;;;;;;;;;
2021/07/25 09:17:01;;;;;;;;;;;;;;;;;;;;;
2021/07/25 09:23:32;;;;;;;50.33;6.47;;;28.20;8.40;;;;;;5023902;28;20451;-82
2021/07/25 09:26:01;;;;;;;48.90;7.80;;;27.80;9.70;;;;;;5053637;28;20483;-86
2021/07/25 09:32:38;;;;;;;;;;;;;;;;;;;;;
2021/07/25 09:35:44;;;;;;;;;;;;;;;;;;;;;
2021/07/25 10:02:27;;;;;;;47.57;5.37;;;27.40;8.20;;;;;;4769140;29;20473;-82
2021/07/25 10:05:06;;;;;;;49.10;5.40;;;26.90;7.70;;;;;;4949271;28;20446;-82
2021/07/25 10:07:56;;;;;;;47.10;5.77;;;27.00;10.10;;;;;;5034967;28;20452;-83
2021/07/25 10:10:23;;;;;;;43.97;9.27;;;26.40;11.40;;;;;;4992466;28;21041;-84
2021/07/25 10:12:57;;;;;;;44.70;4.77;;;25.40;11.20;;;;;;5035237;28;21006;-81
2021/07/25 10:15:47;;;;;;;42.90;4.50;;;24.90;15.70;;;;;;5033460;28;20456;-87
2021/07/25 10:18:21;;;;;;;41.10;3.90;;;24.10;19.60;;;;;;5051854;28;20554;-87
2021/07/25 10:20:57;;;;;;;41.27;3.93;;;23.60;19.80;;;;;;5054794;28;20802;-88
2021/07/25 10:23:29;;;;;;;38.63;3.63;;;23.40;23.10;;;;;;5054241;28;20451;-87
2021/07/25 10:26:02;;;;;;;38.87;4.30;;;23.20;25.50;;;;;;5054433;28;21001;-86
2021/07/25 10:28:36;;;;;;;39.27;4.47;;;23.00;27.50;;;;;;5054511;28;20554;-87
2021/07/25 10:31:14;;;;;;;38.57;3.30;;;23.20;27.20;;;;;;5052888;28;20447;-86
2021/07/25 10:33:44;;;;;;;37.27;3.17;;;24.00;22.60;;;;;;5054257;28;20457;-85
2021/07/25 10:36:23;;;;;;;38.30;3.43;;;25.20;19.50;;;;;;5054323;28;20836;-85
2021/07/25 10:39:09;;;;;;;39.90;3.33;;;26.90;9.20;;;;;;5054125;28;20926;-88
2021/07/25 10:41:52;;;;;;;40.07;4.20;;;28.50;4.60;;;;;;5054183;28;20451;-87
2021/07/25 10:44:52;;;;;;;;;;;;;;;;;;;;;
2021/07/25 10:47:49;;;;;;;43.93;11.53;;;30.90;1.00;;;;;;5047989;28;20454;-85
2021/07/25 10:57:56;;;;;;;;;;;;;;;;;;;;;
2021/07/25 11:37:38;;;;;;;;;;;;;;;;;;;;;
2021/07/25 12:12:21;;;;;;;;;;;;;;;;;;;;;
2021/07/25 12:15:30;;;;;;;54.87;10.60;;;34.80;1.00;;;;;;4978767;28;20241;-89
2021/07/25 12:29:06;;;;;;;;;;;;;;;;;;;;;
2021/07/25 12:41:56;;;;;;;52.67;9.40;;;35.30;1.00;;;;;;5010624;28;20427;-90
2021/07/25 12:44:38;;;;;;;53.20;9.00;;;35.80;1.00;;;;;;5002820;28;20432;-84
2021/07/25 12:47:29;;;;;;;53.17;9.23;;;34.70;1.00;;;;;;4990760;28;20560;-86
2021/07/25 12:50:00;;;;;;;54.20;9.37;;;33.40;1.00;;;;;;5012541;28;20481;-86
2021/07/25 12:52:35;;;;;;;53.80;9.77;;;33.20;1.00;;;;;;5012912;28;20544;-85
2021/07/25 12:55:03;;;;;;;53.47;10.97;;;33.00;1.00;;;;;;4994202;28;20496;-86
2021/07/25 12:57:30;;;;;;;53.00;9.50;;;32.40;1.00;;;;;;5014498;28;20423;-86
2021/07/25 12:59:57;;;;;;;54.63;10.93;;;32.30;1.00;;;;;;5015148;28;20480;-86
2021/07/25 13:05:07;;;;;;;51.90;8.87;;;31.80;1.00;;;;;;4983211;28;20449;-84
2021/07/25 13:07:36;;;;;;;50.70;8.30;;;32.20;1.00;;;;;;5016001;28;20492;-90
2021/07/25 13:10:07;;;;;;;50.83;7.70;;;32.70;1.00;;;;;;5016056;28;20495;-86
2021/07/25 13:12:35;;;;;;;50.97;8.33;;;32.30;1.00;;;;;;5016271;28;20516;-87
2021/07/25 13:15:04;;;;;;;50.43;8.17;;;32.70;1.00;;;;;;5015047;28;20538;-85
2021/07/25 13:17:31;;;;;;;50.87;8.17;;;33.30;1.00;;;;;;5016259;28;20457;-92
2021/07/25 13:19:58;;;;;;;51.87;8.13;;;34.30;1.00;;;;;;5016155;28;20567;-85
2021/07/25 13:22:25;;;;;;;52.20;9.30;;;33.50;1.00;;;;;;5016243;28;20966;-86
2021/07/25 13:24:54;;;;;;;53.53;10.93;;;32.80;1.00;;;;;;5015835;28;20485;-89
2021/07/25 13:27:26;;;;;;;53.70;9.60;;;31.60;1.00;;;;;;5016265;28;20464;-87
2021/07/25 13:29:57;;;;;;;51.73;9.50;;;31.20;1.00;;;;;;5014677;28;20488;-86
2021/07/25 13:32:24;;;;;;;52.63;8.63;;;30.80;1.00;;;;;;5015816;28;20523;-85
2021/07/25 13:34:51;;;;;;;52.67;9.40;;;30.60;1.00;;;;;;5015747;28;20464;-86
2021/07/25 13:37:18;;;;;;;51.00;7.80;;;29.50;1.00;;;;;;5007194;28;20456;-83
2021/07/25 13:39:47;;;;;;;50.43;7.77;;;29.20;1.00;;;;;;4996539;28;20537;-86
2021/07/25 13:42:14;;;;;;;49.00;7.17;;;29.00;1.00;;;;;;4996429;28;20453;-89
2021/07/25 13:44:58;;;;;;;47.63;6.47;;;28.80;1.00;;;;;;4994752;28;20633;-86
2021/07/25 13:47:24;;;;;;;47.30;6.60;;;28.60;1.00;;;;;;4996085;28;21180;-83
2021/07/25 13:49:52;;;;;;;45.83;5.53;;;29.00;1.00;;;;;;4995878;28;20580;-86
2021/07/25 13:52:18;;;;;;;46.37;6.20;;;29.30;1.00;;;;;;4997515;28;20478;-92
2021/07/25 13:54:46;;;;;;;46.10;5.93;;;29.70;1.00;;;;;;5002927;28;20497;-91
2021/07/25 13:57:13;;;;;;;46.20;6.97;;;30.30;1.00;;;;;;4995860;28;20489;-90
2021/07/25 13:59:39;;;;;;;50.50;7.43;;;30.70;1.00;;;;;;4994560;28;20541;-87
2021/07/25 14:02:08;;;;;;;49.20;6.10;;;30.40;1.00;;;;;;4996081;28;20455;-87
2021/07/25 14:04:35;;;;;;;50.20;6.77;;;29.60;1.00;;;;;;4995669;28;20454;-87
2021/07/25 14:07:01;;;;;;;55.40;6.67;;;29.50;1.00;;;;;;4995714;28;20488;-89
2021/07/25 14:09:30;;;;;;;48.13;5.70;;;29.40;1.00;;;;;;5011688;28;20491;-88
2021/07/25 14:11:56;;;;;;;48.20;4.90;;;29.40;1.00;;;;;;5015378;28;20547;-89
2021/07/25 14:14:23;;;;;;;48.00;4.43;;;29.40;1.00;;;;;;5011023;28;21024;-89
2021/07/25 14:16:50;;;;;;;44.77;3.70;;;29.20;1.00;;;;;;5012727;28;20463;-92
2021/07/25 14:19:19;;;;;;;45.17;4.50;;;30.60;1.00;;;;;;5013538;28;20457;-89
2021/07/25 14:21:46;;;;;;;45.77;4.93;;;32.40;1.00;;;;;;5013677;28;20427;-90
2021/07/25 14:24:13;;;;;;;47.40;6.43;;;33.20;1.00;;;;;;5005285;28;20568;-93
2021/07/25 14:26:41;;;;;;;48.87;7.97;;;33.50;1.00;;;;;;4994467;28;20519;-89
2021/07/25 14:29:08;;;;;;;50.63;7.30;;;33.30;1.00;;;;;;4993724;28;20466;-87
2021/07/25 14:31:35;;;;;;;51.10;8.43;;;32.60;1.00;;;;;;4997155;28;20456;-93
2021/07/25 14:34:04;;;;;;;53.77;7.60;;;31.80;1.00;;;;;;4999327;28;20454;-88
2021/07/25 14:36:32;;;;;;;53.13;7.53;;;30.60;1.00;;;;;;4995220;28;20458;-94
2021/07/25 14:38:59;;;;;;;58.90;11.10;;;29.60;1.00;;;;;;4975432;28;20454;-86
2021/07/25 14:41:26;;;;;;;51.47;7.67;;;28.40;1.00;;;;;;4977991;28;20455;-88
2021/07/25 14:43:53;;;;;;;50.27;8.97;;;27.50;1.00;;;;;;4973584;28;20458;-88
2021/07/25 14:46:20;;;;;;;48.70;5.93;;;26.90;1.90;;;;;;4974558;28;20539;-90
2021/07/25 14:48:48;;;;;;;47.10;4.83;;;26.40;6.10;;;;;;4974538;28;20525;-86
2021/07/25 14:51:15;;;;;;;45.23;5.03;;;26.10;5.60;;;;;;4974911;28;20919;-86
2021/07/25 14:53:46;;;;;;;45.13;6.30;;;25.50;8.40;;;;;;4974297;28;20473;-81
2021/07/25 15:00:06;;;;;;;43.77;6.20;;;24.70;10.90;;;;;;4913548;29;20552;-90
2021/07/25 15:02:47;;;;;;;41.87;5.17;;;24.30;14.60;;;;;;4937335;28;20455;-87
2021/07/25 15:05:14;;;;;;;40.50;6.20;;;24.20;15.20;;;;;;4974602;28;20527;-85
2021/07/25 15:07:41;;;;;;;41.80;4.60;;;24.00;15.10;;;;;;4974459;28;20551;-88
2021/07/25 15:10:11;;;;;;;39.77;3.60;;;23.70;17.40;;;;;;4974449;28;20582;-90
2021/07/25 15:12:39;;;;;;;41.37;3.87;;;23.60;20.00;;;;;;4955903;28;20964;-86
2021/07/25 15:15:07;;;;;;;41.57;4.50;;;23.40;23.80;;;;;;4973184;28;20873;-83
2021/07/25 15:17:34;;;;;;;41.50;4.80;;;23.30;26.10;;;;;;4973961;28;20451;-86
2021/07/25 15:20:00;;;;;;;39.60;4.40;;;23.30;25.80;;;;;;4973599;28;20461;-86
2021/07/25 15:22:27;;;;;;;40.10;6.87;;;23.30;30.30;;;;;;4974068;28;21010;-86
2021/07/25 15:24:54;;;;;;;46.87;8.90;;;23.70;31.10;;;;;;4987346;28;20474;-84
2021/07/25 15:27:22;;;;;;;47.13;13.17;;;24.20;23.30;;;;;;4993034;28;20953;-84
2021/07/25 15:29:49;;;;;;;48.30;9.17;;;25.20;17.40;;;;;;4992142;28;20478;-85
2021/07/25 15:32:16;;;;;;;46.40;13.13;;;26.50;14.50;;;;;;4993535;28;20461;-84
2021/07/25 15:35:05;;;;;;;47.13;11.63;;;27.50;8.00;;;;;;4993602;28;20544;-85
2021/07/25 15:37:56;;;;;;;;;;;;;;;;;;;;;
2021/07/25 15:40:37;;;;;;;48.57;8.97;;;30.90;1.00;;;;;;4993360;28;20470;-85
2021/07/25 15:43:32;;;;;;;51.47;9.30;;;31.50;1.00;;;;;;4993279;28;20450;-87
2021/07/25 15:46:05;;;;;;;50.27;5.73;;;31.50;1.00;;;;;;4972904;28;20462;-88
2021/07/25 15:48:34;;;;;;;53.10;6.70;;;31.10;1.00;;;;;;4973530;28;20455;-85
2021/07/25 15:51:01;;;;;;;53.30;7.70;;;31.10;1.00;;;;;;4974384;28;20534;-87
2021/07/25 15:57:03;;;;;;;49.30;6.40;;;30.80;1.00;;;;;;4959545;28;20479;-88
2021/07/25 15:59:48;;;;;;;49.50;6.27;;;31.30;1.00;;;;;;4973130;28;20825;-86
2021/07/25 16:02:15;;;;;;;48.37;4.70;;;32.40;1.00;;;;;;4974269;28;21038;-85
2021/07/25 16:04:41;;;;;;;50.90;6.47;;;32.10;1.00;;;;;;4974405;28;20853;-83
2021/07/25 16:07:08;;;;;;;52.37;7.00;;;31.60;1.00;;;;;;4974012;28;20429;-84
2021/07/25 16:09:35;;;;;;;49.67;5.20;;;31.30;1.00;;;;;;4974008;28;20475;-82
2021/07/25 16:12:02;;;;;;;49.90;5.27;;;30.90;1.00;;;;;;4974163;28;20465;-84
2021/07/25 16:14:29;;;;;;;51.87;6.80;;;30.70;1.00;;;;;;4973319;28;20958;-84
2021/07/25 16:16:57;;;;;;;50.90;6.60;;;29.50;1.00;;;;;;4974310;28;20815;-83
2021/07/25 16:19:24;;;;;;;47.43;6.27;;;29.50;1.00;;;;;;4973963;28;20546;-83
2021/07/25 16:21:51;;;;;;;51.20;5.77;;;29.70;1.00;;;;;;4973911;28;20426;-86
2021/07/25 16:24:17;;;;;;;51.57;5.40;;;29.70;1.00;;;;;;4973752;28;20461;-84
2021/07/25 16:26:44;;;;;;;54.50;7.37;;;29.60;1.00;;;;;;4974191;28;20454;-82
2021/07/25 16:29:11;;;;;;;51.67;7.07;;;29.30;1.00;;;;;;4972990;28;20550;-83
2021/07/25 16:31:38;;;;;;;50.90;5.97;;;28.70;1.00;;;;;;4976080;28;20465;-83
2021/07/25 16:34:06;;;;;;;50.00;6.50;;;28.20;1.00;;;;;;4977911;28;20827;-83
2021/07/25 16:36:33;;;;;;;50.20;6.07;;;28.10;1.00;;;;;;4980269;28;20510;-82
2021/07/25 16:38:59;;;;;;;49.00;6.47;;;27.90;1.00;;;;;;4997272;28;20464;-83
2021/07/25 16:41:26;;;;;;;49.20;7.00;;;28.60;1.00;;;;;;4997398;28;20462;-84
2021/07/25 16:43:54;;;;;;;49.40;6.93;;;29.20;1.00;;;;;;4997237;28;20489;-82
2021/07/25 16:46:23;;;;;;;53.03;8.23;;;29.10;1.00;;;;;;4996531;28;20454;-85
2021/07/25 16:48:50;;;;;;;53.77;8.57;;;28.90;1.00;;;;;;4997142;28;20906;-83
2021/07/25 16:51:18;;;;;;;51.87;8.37;;;28.90;1.00;;;;;;4997047;28;20576;-83
2021/07/25 16:53:46;;;;;;;51.57;8.70;;;28.60;1.00;;;;;;4997348;28;20901;-83
2021/07/25 16:56:13;;;;;;;56.00;7.80;;;27.90;1.00;;;;;;4997015;28;20504;-83
2021/07/25 16:58:40;;;;;;;52.47;7.20;;;27.10;1.00;;;;;;4996980;28;20457;-82
2021/07/25 17:01:07;;;;;;;52.23;6.83;;;26.70;1.20;;;;;;4995808;28;20890;-82
2021/07/25 17:03:34;;;;;;;53.10;6.00;;;26.20;3.40;;;;;;4996856;28;20461;-81
2021/07/25 17:06:02;;;;;;;53.90;6.03;;;25.80;5.60;;;;;;4996996;28;20548;-83
2021/07/25 17:08:31;;;;;;;52.10;6.83;;;25.50;7.40;;;;;;5005028;28;20424;-83
2021/07/25 17:10:58;;;;;;;51.80;9.40;;;25.40;8.40;;;;;;5016257;28;20575;-82
2021/07/25 17:13:25;;;;;;;55.50;13.00;;;25.30;10.20;;;;;;5016108;28;20539;-81
2021/07/25 17:15:51;;;;;;;55.60;15.20;;;25.40;10.40;;;;;;5014905;28;20460;-82
2021/07/25 17:18:19;;;;;;;52.90;17.50;;;25.40;9.60;;;;;;5016243;28;20557;-82
2021/07/25 17:20:46;;;;;;;56.40;19.83;;;25.20;9.80;;;;;;5016104;28;20457;-82
2021/07/25 17:23:12;;;;;;;53.70;14.33;;;25.00;10.10;;;;;;5015969;28;20472;-82
2021/07/25 17:25:41;;;;;;;53.27;15.43;;;24.90;11.20;;;;;;5016103;28;20451;-82
2021/07/25 17:28:08;;;;;;;54.53;17.20;;;24.70;11.40;;;;;;5016041;28;20971;-82
2021/07/25 17:30:36;;;;;;;54.27;16.33;;;24.60;11.40;;;;;;5014710;28;20499;-81
2021/07/25 17:33:04;;;;;;;51.63;15.93;;;24.30;12.20;;;;;;5016042;28;20519;-82
2021/07/25 17:35:31;;;;;;;51.97;13.47;;;24.20;12.70;;;;;;4999342;28;20453;-83
2021/07/25 17:37:59;;;;;;;53.50;13.83;;;24.10;13.60;;;;;;4995966;28;20466;-83
2021/07/25 17:40:27;;;;;;;54.67;19.23;;;23.90;15.00;;;;;;4996207;28;20825;-83
2021/07/25 17:42:55;;;;;;;46.27;9.80;;;23.70;17.20;;;;;;4995339;28;20464;-81
2021/07/25 17:45:23;;;;;;;45.17;4.83;;;23.40;18.20;;;;;;4995108;28;20485;-83
2021/07/25 17:47:51;;;;;;;42.80;4.00;;;23.30;18.10;;;;;;4996215;28;20554;-85
2021/07/25 17:50:18;;;;;;;48.83;3.93;;;23.20;18.30;;;;;;4995963;28;20540;-85
2021/07/25 17:52:45;;;;;;;39.90;4.33;;;23.20;19.30;;;;;;4995954;28;20804;-84
2021/07/25 17:55:14;;;;;;;37.00;3.23;;;23.10;21.50;;;;;;4995940;28;20453;-84
2021/07/25 17:57:41;;;;;;;40.10;3.83;;;23.10;21.00;;;;;;4995878;28;20473;-83
2021/07/25 18:00:10;;;;;;;37.00;3.10;;;23.10;21.90;;;;;;4994827;28;20509;-83